Time;durP1;ratioP1;P1;durP2;ratioP2;P2;SDS_P1;SDS_P2;PMS_P1;PMS_P2;Temp;Humidity;BMP_temperature;BMP_pressure;BME280_temperature;BME280_humidity;BME280_pressure;Samples;Min_cycle;Max_cycle;Signal;HPM_P1;HPM_P2
2022/08/15 00:00:52;;;;;;;6.00;4.00;;;;;;;27.84;46.77;99817.25;1796007;79;21031;-82
2022/08/15 00:03:28;;;;;;;4.92;4.30;;;;;;;27.83;46.76;99820.64;1795928;79;21751;-82
2022/08/15 00:05:59;;;;;;;4.72;3.80;;;;;;;27.84;46.77;99821.44;1795644;79;21540;-83
2022/08/15 00:08:27;;;;;;;5.22;4.37;;;;;;;27.83;46.79;99819.23;1796067;79;21003;-83
2022/08/15 00:11:04;;;;;;;4.47;4.08;;;;;;;27.83;46.80;99817.03;1795888;79;21027;-82
2022/08/15 00:13:31;;;;;;;5.58;4.28;;;;;;;27.82;46.80;99815.42;1795760;79;21085;-83
2022/08/15 00:15:57;;;;;;;5.00;4.33;;;;;;;27.82;46.81;99814.83;1796082;79;21504;-83
2022/08/15 00:18:25;;;;;;;5.12;4.08;;;;;;;27.82;46.81;99820.42;1795892;79;21026;-82
2022/08/15 00:20:52;;;;;;;4.70;4.12;;;;;;;27.82;46.83;99817.63;1795793;79;21055;-82
2022/08/15 00:23:26;;;;;;;5.15;4.40;;;;;;;27.81;46.83;99812.41;1796079;79;21046;-82
2022/08/15 00:25:57;;;;;;;5.22;4.33;;;;;;;27.82;46.86;99814.83;1796053;79;21600;-82
2022/08/15 00:28:28;;;;;;;6.10;3.83;;;;;;;27.81;46.85;99818.81;1795397;79;22455;-83
2022/08/15 00:30:54;;;;;;;4.75;4.20;;;;;;;27.82;46.84;99821.02;1794514;79;21044;-82
2022/08/15 00:33:20;;;;;;;5.53;4.28;;;;;;;27.82;46.87;99816.82;1804170;78;21041;-82
2022/08/15 00:35:49;;;;;;;4.97;4.37;;;;;;;27.81;46.85;99815.20;1803599;79;21025;-83
2022/08/15 00:38:24;;;;;;;4.85;4.00;;;;;;;27.81;46.87;99820.20;1791158;77;21495;-83
2022/08/15 00:43:47;;;;;;;6.08;4.15;;;;;;;27.81;46.89;99824.41;1778356;79;21012;-83
2022/08/15 00:46:14;;;;;;;6.05;4.08;;;;;;;27.80;46.87;99815.80;1777936;80;21550;-83
2022/08/15 00:48:41;;;;;;;5.12;4.50;;;;;;;27.79;46.90;99822.61;1778716;80;20985;-82
2022/08/15 00:51:37;;;;;;;4.90;3.98;;;;;;;27.81;46.91;99829.99;1778697;79;21040;-82
2022/08/15 00:54:09;;;;;;;4.33;3.92;;;;;;;27.80;46.94;99828.38;1776760;79;21209;-83
2022/08/15 00:56:52;;;;;;;4.70;4.10;;;;;;;27.79;46.94;99824.00;1778822;80;20996;-82
2022/08/15 00:59:23;;;;;;;5.17;4.25;;;;;;;27.80;46.95;99828.97;1765089;80;21024;-83
2022/08/15 01:01:50;;;;;;;5.03;4.05;;;;;;;27.79;46.93;99828.79;1778640;80;21044;-83
2022/08/15 01:04:17;;;;;;;4.50;4.10;;;;;;;27.79;46.96;99828.79;1778582;80;21004;-83
2022/08/15 01:06:45;;;;;;;6.00;4.03;;;;;;;27.79;46.97;99830.19;1778359;79;21165;-82
2022/08/15 01:09:12;;;;;;;4.87;3.85;;;;;;;27.78;46.98;99832.17;1778472;80;20985;-83
2022/08/15 01:11:49;;;;;;;4.47;3.95;;;;;;;27.79;47.01;99834.37;1778623;80;20993;-82
2022/08/15 01:14:17;;;;;;;4.55;3.98;;;;;;;27.77;47.00;99831.97;1778403;80;21032;-82
2022/08/15 01:16:43;;;;;;;4.58;4.05;;;;;;;27.78;46.99;99827.18;1778776;80;21083;-83
2022/08/15 01:19:33;;;;;;;5.80;3.90;;;;;;;27.79;46.99;99830.19;1778744;79;21090;-83
2022/08/15 01:22:28;;;;;;;4.97;4.37;;;;;;;27.79;47.02;99832.39;1778444;80;20893;-82
2022/08/15 01:25:20;;;;;;;5.12;3.90;;;;;;;27.77;47.02;99826.37;1778696;80;21037;-82
2022/08/15 01:27:55;;;;;;;5.05;4.10;;;;;;;27.77;47.02;99828.36;1778053;79;20989;-83
2022/08/15 01:30:25;;;;;;;4.47;3.65;;;;;;;27.76;47.02;99828.95;1766853;79;20992;-83
2022/08/15 01:32:55;;;;;;;5.28;3.90;;;;;;;27.76;47.03;99831.75;1777977;79;21883;-83
2022/08/15 01:35:21;;;;;;;5.72;4.03;;;;;;;27.76;47.06;99828.95;1721518;80;20926;-82
2022/08/15 01:37:53;;;;;;;4.42;3.67;;;;;;;27.75;47.07;99831.57;1787084;77;21093;-82
2022/08/15 01:40:37;;;;;;;4.95;4.35;;;;;;;27.76;47.07;99829.55;1830365;77;21414;-83
2022/08/15 01:43:03;;;;;;;5.08;4.15;;;;;;;27.76;47.11;99840.14;1830675;77;21029;-83
2022/08/15 01:45:30;;;;;;;4.62;3.92;;;;;;;27.75;47.08;99851.13;1830552;78;21159;-82
2022/08/15 01:48:10;;;;;;;5.42;4.03;;;;;;;27.75;47.11;99845.55;1807862;78;20926;-83
2022/08/15 01:50:42;;;;;;;4.58;3.27;;;;;;;27.76;47.12;99858.89;1830822;78;20998;-82
2022/08/15 01:53:39;;;;;;;5.70;4.30;;;;;;;27.76;47.11;99863.09;1830768;77;21072;-83
2022/08/15 01:56:23;;;;;;;5.40;3.72;;;;;;;27.75;47.12;99862.31;1830346;78;21491;-83
2022/08/15 01:58:49;;;;;;;5.00;4.03;;;;;;;27.74;47.10;99862.09;1830731;77;21080;-82
2022/08/15 02:01:18;;;;;;;4.65;4.15;;;;;;;27.74;47.13;99852.31;1830372;78;20974;-82
2022/08/15 02:03:46;;;;;;;4.45;3.75;;;;;;;27.73;47.14;99839.53;1808026;78;21570;-82
2022/08/15 02:06:23;;;;;;;4.85;4.28;;;;;;;27.74;47.17;99837.53;1830750;78;21061;-82
2022/08/15 02:08:52;;;;;;;5.10;4.35;;;;;;;27.74;47.19;99830.55;1830250;78;21036;-83
2022/08/15 02:11:21;;;;;;;4.45;3.80;;;;;;;27.73;47.19;99824.16;1830753;77;21123;-83
2022/08/15 02:13:49;;;;;;;6.53;4.28;;;;;;;27.74;47.20;99826.36;1830802;78;21527;-83
2022/08/15 02:16:19;;;;;;;4.80;4.30;;;;;;;27.73;47.21;99821.36;1830356;77;21076;-83
2022/08/15 02:18:46;;;;;;;5.53;4.28;;;;;;;27.73;47.21;99810.18;1830964;78;20986;-83
2022/08/15 02:21:12;;;;;;;4.95;4.37;;;;;;;27.74;47.23;99808.19;1830973;77;20997;-83
2022/08/15 02:23:39;;;;;;;4.30;3.90;;;;;;;27.74;47.23;99803.41;1830687;78;21155;-82
2022/08/15 02:26:07;;;;;;;5.08;3.80;;;;;;;27.73;47.25;99807.98;1830770;77;21026;-82
2022/08/15 02:28:33;;;;;;;5.20;4.35;;;;;;;27.74;47.24;99813.78;1830882;77;21034;-82
2022/08/15 02:30:59;;;;;;;5.03;4.20;;;;;;;27.73;47.25;99812.17;1830323;77;21009;-83
2022/08/15 02:33:27;;;;;;;4.40;3.92;;;;;;;27.74;47.25;99818.78;1830696;77;21068;-83
2022/08/15 02:35:54;;;;;;;5.28;4.25;;;;;;;27.73;47.25;99826.95;1830807;77;21472;-83
2022/08/15 02:38:20;;;;;;;4.53;4.12;;;;;;;27.73;47.25;99824.16;1830351;78;21017;-82
2022/08/15 02:40:49;;;;;;;4.67;3.90;;;;;;;27.73;47.26;99828.94;1830639;78;21033;-83
2022/08/15 02:43:15;;;;;;;4.30;3.90;;;;;;;27.74;47.27;99834.74;1830694;77;21510;-83
2022/08/15 02:45:47;;;;;;;5.15;4.25;;;;;;;27.73;47.27;99829.74;1830525;78;21018;-83
2022/08/15 02:48:10;;;;;;;5.92;4.20;;;;;;;27.73;47.26;99836.73;1830139;78;21817;-82
2022/08/15 02:50:37;;;;;;;4.78;4.33;;;;;;;27.74;47.27;99838.94;1830768;77;21094;-82
2022/08/15 02:53:10;;;;;;;5.20;3.80;;;;;;;27.74;47.27;99834.74;1830556;78;21061;-82
2022/08/15 02:55:37;;;;;;;5.15;4.10;;;;;;;27.74;47.27;99847.31;1821997;78;21705;-83
2022/08/15 02:58:03;;;;;;;6.17;4.22;;;;;;;27.73;47.29;99845.11;1830677;78;21032;-83
2022/08/15 03:00:30;;;;;;;4.83;4.05;;;;;;;27.73;47.27;99844.31;1830509;78;21969;-83
2022/08/15 03:03:00;;;;;;;4.30;3.83;;;;;;;27.73;47.29;99850.70;1830756;78;20989;-82
2022/08/15 03:05:29;;;;;;;4.22;3.83;;;;;;;27.73;47.30;99848.50;1830927;77;21005;-83
2022/08/15 03:07:55;;;;;;;4.35;3.95;;;;;;;27.73;47.30;99848.50;1830449;78;21073;-82
2022/08/15 03:10:22;;;;;;;5.15;3.95;;;;;;;27.71;47.30;99838.51;1830568;78;21041;-82
2022/08/15 03:12:55;;;;;;;4.53;4.08;;;;;;;27.73;47.31;99842.91;1830753;78;21105;-82
2022/08/15 03:15:25;;;;;;;4.72;3.87;;;;;;;27.72;47.32;99846.30;1830102;77;21600;-83
2022/08/15 03:17:52;;;;;;;4.92;4.03;;;;;;;27.71;47.31;99851.67;1830858;77;21041;-83
2022/08/15 03:20:19;;;;;;;4.70;3.67;;;;;;;27.71;47.31;99846.09;1807657;78;20990;-82
2022/08/15 03:22:48;;;;;;;5.33;3.85;;;;;;;27.71;47.32;99850.27;1830348;78;21037;-82
2022/08/15 03:25:15;;;;;;;4.47;3.85;;;;;;;27.72;47.34;99850.48;1830816;77;21424;-83
2022/08/15 03:27:42;;;;;;;4.58;3.98;;;;;;;27.71;47.32;99857.27;1830735;77;21009;-82
2022/08/15 03:30:10;;;;;;;5.30;4.05;;;;;;;27.70;47.34;99857.89;1830487;77;21057;-82
2022/08/15 03:32:53;;;;;;;5.08;3.98;;;;;;;27.71;47.36;99860.86;1830903;78;21108;-82
2022/08/15 03:35:21;;;;;;;4.47;3.80;;;;;;;27.70;47.34;99866.27;1818069;77;20971;-83
2022/08/15 03:37:48;;;;;;;4.28;3.87;;;;;;;27.70;47.35;99871.05;1799991;78;21969;-82
2022/08/15 03:40:14;;;;;;;4.83;4.15;;;;;;;27.69;47.35;99875.84;1796503;79;20992;-82
2022/08/15 03:42:57;;;;;;;5.05;4.03;;;;;;;27.70;47.36;99876.64;1795603;79;21031;-82
2022/08/15 03:45:29;;;;;;;5.58;4.30;;;;;;;27.70;47.38;99872.45;1795895;79;21557;-82
2022/08/15 03:47:56;;;;;;;4.55;4.12;;;;;;;27.69;47.38;99869.44;1795637;79;21639;-82
2022/08/15 03:50:22;;;;;;;4.83;4.30;;;;;;;27.70;47.39;99871.05;1795770;79;21521;-82
2022/08/15 03:52:58;;;;;;;4.65;4.17;;;;;;;27.69;47.40;99872.23;1795812;79;21035;-82
2022/08/15 03:55:26;;;;;;;4.92;4.35;;;;;;;27.70;47.41;99880.84;1795716;79;21006;-83
2022/08/15 03:57:53;;;;;;;4.47;3.92;;;;;;;27.69;47.40;99880.03;1795832;79;21019;-83
2022/08/15 04:00:23;;;;;;;5.35;4.30;;;;;;;27.70;47.42;99880.84;1795819;79;21511;-82
2022/08/15 04:02:50;;;;;;;4.90;3.83;;;;;;;27.68;47.45;99871.43;1795507;79;21154;-82
2022/08/15 04:05:16;;;;;;;5.05;3.55;;;;;;;27.70;47.44;99875.25;1795639;79;21066;-82
2022/08/15 04:07:43;;;;;;;6.78;4.53;;;;;;;27.68;47.46;99867.83;1795652;79;21030;-82
2022/08/15 04:10:14;;;;;;;4.92;4.20;;;;;;;27.69;47.47;99873.63;1795418;79;20999;-83
2022/08/15 04:12:41;;;;;;;4.78;4.12;;;;;;;27.68;47.49;99874.23;1795472;79;21065;-83
2022/08/15 04:15:12;;;;;;;6.22;4.60;;;;;;;27.68;47.48;99870.63;1795660;79;21110;-83
2022/08/15 04:17:44;;;;;;;5.00;4.03;;;;;;;27.68;47.49;99872.83;1795535;79;21042;-82
2022/08/15 04:20:11;;;;;;;4.80;4.03;;;;;;;27.68;47.52;99877.61;1795606;79;21063;-83
2022/08/15 04:22:41;;;;;;;5.25;4.37;;;;;;;27.68;47.52;99877.61;1795619;79;21145;-82
2022/08/15 04:25:27;;;;;;;5.40;4.35;;;;;;;27.67;47.53;99875.41;1794447;79;21105;-82
2022/08/15 04:27:56;;;;;;;5.22;4.53;;;;;;;27.67;47.53;99876.81;1795491;79;22099;-82
2022/08/15 04:30:25;;;;;;;4.37;3.80;;;;;;;27.67;47.55;99870.41;1795435;79;21565;-82
2022/08/15 04:32:53;;;;;;;4.50;4.03;;;;;;;27.67;47.54;99881.00;1795947;79;21010;-83
2022/08/15 04:35:20;;;;;;;4.10;3.70;;;;;;;27.66;47.56;99881.41;1795784;79;21039;-82
2022/08/15 04:37:46;;;;;;;5.12;4.60;;;;;;;27.66;47.60;99883.61;1795552;79;21039;-83
2022/08/15 04:40:14;;;;;;;4.83;4.03;;;;;;;27.66;47.58;99891.99;1798564;79;22168;-82
2022/08/15 04:42:53;;;;;;;4.67;4.17;;;;;;;27.67;47.60;99892.77;1800997;79;20995;-82
2022/08/15 04:45:21;;;;;;;5.15;4.25;;;;;;;27.66;47.62;99891.19;1800845;79;21026;-83
2022/08/15 04:47:47;;;;;;;5.20;4.40;;;;;;;27.66;47.62;99892.58;1801114;79;21062;-83
2022/08/15 04:50:14;;;;;;;6.37;4.30;;;;;;;27.66;47.63;99882.80;1803605;78;21010;-82
2022/08/15 04:52:53;;;;;;;4.42;4.03;;;;;;;27.66;47.63;99891.19;1803233;79;21100;-82
2022/08/15 04:55:22;;;;;;;5.37;4.43;;;;;;;27.66;47.65;99882.80;1803667;79;21003;-82
2022/08/15 04:57:49;;;;;;;4.80;4.08;;;;;;;27.65;47.62;99888.17;1803180;79;21013;-82
2022/08/15 05:00:17;;;;;;;4.75;4.08;;;;;;;27.65;47.66;99884.79;1803447;79;20956;-82
2022/08/15 05:03:07;;;;;;;5.62;4.20;;;;;;;27.65;47.66;99887.59;1803299;79;21034;-82
2022/08/15 05:05:38;;;;;;;5.20;4.53;;;;;;;27.65;47.66;99889.58;1803454;79;21946;-83
2022/08/15 05:08:05;;;;;;;4.90;3.92;;;;;;;27.65;47.66;99882.59;1803809;79;21014;-83
2022/08/15 05:10:32;;;;;;;5.42;4.15;;;;;;;27.64;47.68;99880.38;1803932;79;21477;-82
2022/08/15 05:13:17;;;;;;;5.83;4.33;;;;;;;27.64;47.68;99896.34;1803523;79;21034;-82
2022/08/15 05:15:44;;;;;;;5.03;4.20;;;;;;;27.63;47.69;99895.54;1804087;78;21030;-83
2022/08/15 05:18:10;;;;;;;5.20;4.55;;;;;;;27.65;47.68;99903.55;1803460;79;21027;-83
2022/08/15 05:20:37;;;;;;;4.80;4.30;;;;;;;27.65;47.72;99895.16;1803602;78;21046;-83
2022/08/15 05:23:06;;;;;;;5.40;4.22;;;;;;;27.64;47.71;99897.15;1803884;79;20995;-83
2022/08/15 05:25:36;;;;;;;4.72;4.08;;;;;;;27.65;47.70;99902.15;1803717;79;21533;-83
2022/08/15 05:28:03;;;;;;;5.47;4.45;;;;;;;27.64;47.73;99908.33;1803742;78;21529;-82
2022/08/15 05:30:29;;;;;;;6.25;4.28;;;;;;;27.65;47.72;99911.93;1803462;79;21119;-83
2022/08/15 05:33:12;;;;;;;4.87;4.17;;;;;;;27.64;47.71;99905.53;1803224;79;21517;-83
2022/08/15 05:35:41;;;;;;;5.42;4.33;;;;;;;27.65;47.70;99907.15;1802953;79;21602;-82
2022/08/15 05:38:14;;;;;;;4.62;4.05;;;;;;;27.65;47.73;99906.34;1803228;79;21078;-82
2022/08/15 05:40:55;;;;;;;5.28;4.15;;;;;;;27.65;47.72;99907.73;1803107;79;20999;-82
2022/08/15 05:43:50;;;;;;;5.75;4.20;;;;;;;27.65;47.74;99918.92;1802472;78;22034;-82
2022/08/15 05:46:31;;;;;;;4.83;4.33;;;;;;;27.65;47.75;99917.52;1803591;78;20955;-82
2022/08/15 05:49:17;;;;;;;5.30;4.47;;;;;;;27.65;47.73;99918.92;1767152;79;21036;-82
2022/08/15 05:52:10;;;;;;;5.42;4.50;;;;;;;27.64;47.73;99922.89;1803871;78;21051;-82
2022/08/15 05:54:45;;;;;;;5.95;4.42;;;;;;;27.63;47.75;99924.08;1803520;78;21470;-81
2022/08/15 05:57:40;;;;;;;4.53;4.12;;;;;;;27.62;47.76;99929.48;1803129;78;21626;-81
2022/08/15 06:00:11;;;;;;;4.55;4.05;;;;;;;27.62;47.76;99930.88;1803198;78;21039;-81
2022/08/15 06:02:51;;;;;;;5.42;4.33;;;;;;;27.62;47.78;99925.28;1803752;78;21033;-82
2022/08/15 06:05:38;;;;;;;4.78;4.22;;;;;;;27.61;47.79;99920.29;1772033;78;21026;-81
2022/08/15 06:08:12;;;;;;;5.37;4.40;;;;;;;27.61;47.82;99919.48;1803877;79;21085;-81
2022/08/15 06:10:43;;;;;;;6.15;4.42;;;;;;;27.61;47.83;99923.09;1803616;79;21084;-81
2022/08/15 06:13:20;;;;;;;4.87;3.98;;;;;;;27.60;47.84;99922.06;1803702;78;21022;-81
2022/08/15 06:15:58;;;;;;;5.87;4.40;;;;;;;27.61;47.84;99923.67;1803528;78;21023;-82
2022/08/15 06:18:25;;;;;;;5.12;4.03;;;;;;;27.60;47.87;99928.45;1780172;78;21050;-81
2022/08/15 06:21:17;;;;;;;4.45;3.90;;;;;;;27.60;47.90;99923.46;1803405;79;21046;-81
2022/08/15 06:24:18;;;;;;;5.03;4.45;;;;;;;27.60;47.90;99922.06;1803693;79;21045;-82
2022/08/15 06:27:26;;;;;;;4.47;4.08;;;;;;;27.60;47.89;99922.06;1802338;78;21459;-81
2022/08/15 06:30:10;;;;;;;4.92;4.42;;;;;;;27.60;47.89;99923.46;1803683;78;21465;-81
2022/08/15 06:32:45;;;;;;;4.70;4.17;;;;;;;27.58;47.90;99926.63;1803125;78;21046;-82
2022/08/15 06:35:33;;;;;;;5.12;4.50;;;;;;;27.60;47.91;99926.25;1802635;78;21348;-81
2022/08/15 06:38:19;;;;;;;4.75;4.20;;;;;;;27.59;47.91;99912.88;1803482;78;21114;-81
2022/08/15 06:40:53;;;;;;;4.97;4.47;;;;;;;27.59;47.92;99907.88;1803194;79;21032;-81
2022/08/15 06:43:19;;;;;;;4.90;4.35;;;;;;;27.59;47.92;99909.27;1803152;79;21046;-81
2022/08/15 06:45:49;;;;;;;5.00;4.50;;;;;;;27.59;47.95;99914.86;1803449;78;21011;-82
2022/08/15 06:48:20;;;;;;;4.47;4.08;;;;;;;27.60;47.95;99920.67;1803741;78;20983;-81
2022/08/15 06:50:51;;;;;;;6.65;4.70;;;;;;;27.59;47.97;99917.06;1801949;78;21351;-81
2022/08/15 06:53:28;;;;;;;5.20;4.22;;;;;;;27.59;47.98;99915.67;1802537;79;20960;-82
2022/08/15 06:56:24;;;;;;;5.60;4.35;;;;;;;27.59;47.99;99898.90;1801853;79;21063;-81
2022/08/15 06:59:15;;;;;;;4.90;4.40;;;;;;;27.60;47.97;99906.69;1800907;79;21078;-81
2022/08/15 07:02:05;;;;;;;5.90;4.40;;;;;;;27.60;47.96;99914.48;1803146;79;21674;-82
2022/08/15 07:04:43;;;;;;;7.10;4.73;;;;;;;27.59;47.96;99904.49;1802038;79;21240;-82
2022/08/15 07:07:49;;;;;;;5.62;4.47;;;;;;;27.59;47.95;99903.69;1801718;79;21116;-81
2022/08/15 07:10:33;;;;;;;4.53;4.03;;;;;;;27.59;47.97;99907.88;1802831;79;21070;-81
2022/08/15 07:13:14;;;;;;;4.62;4.10;;;;;;;27.58;47.97;99904.27;1803377;78;21097;-81
2022/08/15 07:15:56;;;;;;;6.47;4.62;;;;;;;27.58;47.99;99897.29;1779549;79;21615;-82
2022/08/15 07:18:36;;;;;;;5.65;4.50;;;;;;;27.59;47.98;99888.31;1809163;78;22044;-82
2022/08/15 07:21:08;;;;;;;5.40;4.70;;;;;;;27.58;48.02;99881.14;1809533;79;21038;-82
2022/08/15 07:23:35;;;;;;;4.97;4.37;;;;;;;27.58;48.03;99879.75;1808962;78;20994;-82
2022/08/15 07:26:07;;;;;;;7.20;4.85;;;;;;;27.57;48.02;99874.75;1809369;79;21030;-82
2022/08/15 07:28:34;;;;;;;4.97;4.33;;;;;;;27.59;48.03;99875.74;1808944;78;21604;-81
2022/08/15 07:31:19;;;;;;;4.92;4.42;;;;;;;27.59;48.04;99879.93;1809171;78;21952;-82
2022/08/15 07:33:49;;;;;;;4.95;4.33;;;;;;;27.59;48.07;99882.14;1809460;79;21046;-81
2022/08/15 07:36:26;;;;;;;5.22;4.37;;;;;;;27.59;48.04;99882.73;1809132;78;21018;-81
2022/08/15 07:38:58;;;;;;;6.60;4.65;;;;;;;27.60;48.04;99885.73;1809020;79;21081;-81
2022/08/15 07:41:33;;;;;;;5.12;4.62;;;;;;;27.60;48.03;99888.53;1805542;79;21561;-82
2022/08/15 07:44:26;;;;;;;5.90;4.47;;;;;;;27.60;48.04;99884.34;1803655;79;21154;-82
2022/08/15 07:47:08;;;;;;;5.58;4.72;;;;;;;27.62;48.02;99884.77;1803437;78;20996;-82
2022/08/15 07:49:32;;;;;;;4.72;4.33;;;;;;;27.62;48.00;99891.16;1801917;79;20980;-82
2022/08/15 07:52:16;;;;;;;5.90;4.90;;;;;;;27.61;48.00;99892.34;1792733;79;21049;-82
2022/08/15 07:54:48;;;;;;;5.45;4.15;;;;;;;27.62;48.00;99888.96;1800826;79;21011;-81
2022/08/15 07:57:32;;;;;;;4.70;4.20;;;;;;;27.62;47.97;99886.97;1803602;78;21187;-82
2022/08/15 08:00:10;;;;;;;5.50;4.30;;;;;;;27.63;47.96;99886.34;1803949;78;20908;-83
2022/08/15 08:03:09;;;;;;;4.87;4.28;;;;;;;27.63;47.96;99892.74;1803649;79;20896;-83
2022/08/15 08:05:47;;;;;;;6.28;4.50;;;;;;;27.63;47.97;99891.94;1803804;79;21023;-83
2022/08/15 08:08:13;;;;;;;4.85;4.22;;;;;;;27.63;47.94;99890.55;1803753;78;21931;-83
2022/08/15 08:10:45;;;;;;;5.20;4.30;;;;;;;27.63;47.93;99896.13;1803830;78;22039;-83
2022/08/15 08:13:45;;;;;;;4.95;4.37;;;;;;;27.64;47.93;99890.76;1803503;79;21081;-83
2022/08/15 08:16:46;;;;;;;4.78;4.28;;;;;;;27.63;47.94;99895.54;1803676;78;21093;-83
2022/08/15 08:19:39;;;;;;;5.50;4.40;;;;;;;27.63;47.92;99903.92;1801591;79;21061;-83
2022/08/15 08:22:23;;;;;;;6.05;4.67;;;;;;;27.63;47.90;99903.92;1803347;79;21568;-83
2022/08/15 08:25:26;;;;;;;5.33;4.62;;;;;;;27.63;47.93;99912.30;1804125;78;21052;-83
2022/08/15 08:28:06;;;;;;;5.90;5.12;;;;;;;27.63;47.93;99910.91;1803622;79;21058;-83
2022/08/15 08:30:40;;;;;;;5.10;4.60;;;;;;;27.64;47.96;99913.11;1804076;78;21058;-83
2022/08/15 08:33:21;;;;;;;5.58;4.45;;;;;;;27.63;47.95;99914.30;1800158;79;21002;-83
2022/08/15 08:35:56;;;;;;;5.47;4.47;;;;;;;27.63;48.00;99918.48;1801057;78;21042;-83
2022/08/15 08:38:46;;;;;;;4.50;4.10;;;;;;;27.63;48.01;99914.30;1801869;79;21532;-83
2022/08/15 08:41:34;;;;;;;5.22;4.72;;;;;;;27.64;48.01;99922.89;1815443;77;21076;-83
2022/08/15 08:44:14;;;;;;;5.20;4.35;;;;;;;27.64;48.04;99924.29;1830652;77;21041;-83
2022/08/15 08:47:06;;;;;;;5.85;4.87;;;;;;;27.64;48.06;99922.89;1830583;78;21571;-83
2022/08/15 08:50:09;;;;;;;6.40;4.85;;;;;;;27.64;48.04;99924.29;1830388;78;21626;-83
2022/08/15 08:53:16;;;;;;;5.62;4.70;;;;;;;27.63;48.06;99927.67;1794418;78;22365;-83
2022/08/15 08:56:14;;;;;;;5.92;4.60;;;;;;;27.63;48.05;99936.06;1830599;78;21374;-83
2022/08/15 08:58:45;;;;;;;5.00;4.50;;;;;;;27.62;48.00;99933.08;1830813;78;21551;-83
2022/08/15 09:01:16;;;;;;;5.78;5.00;;;;;;;27.62;48.01;99933.67;1830201;78;21488;-83
2022/08/15 09:03:51;;;;;;;4.58;4.17;;;;;;;27.61;48.06;99934.27;1830689;78;21056;-83
2022/08/15 09:06:24;;;;;;;6.20;5.05;;;;;;;27.61;48.06;99932.87;1830470;78;21130;-83
2022/08/15 09:08:56;;;;;;;4.85;4.35;;;;;;;27.62;48.09;99934.48;1830663;77;21076;-83
2022/08/15 09:11:27;;;;;;;5.22;4.42;;;;;;;27.61;48.14;99930.07;1830073;78;21510;-83
2022/08/15 09:13:56;;;;;;;6.72;5.10;;;;;;;27.62;48.12;99927.49;1829612;78;21072;-83
2022/08/15 09:16:34;;;;;;;5.17;4.45;;;;;;;27.63;48.15;99933.86;1830656;78;21567;-83
2022/08/15 09:19:15;;;;;;;5.47;4.97;;;;;;;27.63;48.18;99928.27;1830032;78;21120;-83
2022/08/15 09:21:43;;;;;;;6.85;4.20;;;;;;;27.62;48.17;99928.08;1829422;78;21029;-83
2022/08/15 09:24:10;;;;;;;4.60;4.17;;;;;;;27.63;48.14;99928.27;1830460;78;21064;-83
2022/08/15 09:26:53;;;;;;;5.75;4.95;;;;;;;27.63;48.12;99933.27;1830768;77;20989;-83
2022/08/15 09:29:32;;;;;;;5.08;4.58;;;;;;;27.64;48.17;99929.88;1772100;77;21037;-83
2022/08/15 09:32:20;;;;;;;5.10;4.60;;;;;;;27.62;48.15;99922.49;1830683;78;21214;-83
2022/08/15 09:35:13;;;;;;;5.22;4.72;;;;;;;27.63;48.18;99931.87;1822174;78;20886;-83
2022/08/15 09:38:21;;;;;;;5.20;4.70;;;;;;;27.62;48.16;99919.11;1830855;77;20964;-83
2022/08/15 09:41:00;;;;;;;5.55;4.55;;;;;;;27.63;48.19;99921.28;1830434;78;21060;-83
2022/08/15 09:43:44;;;;;;;5.80;5.10;;;;;;;27.62;48.15;99926.69;1830754;77;21493;-82
2022/08/15 09:46:31;;;;;;;5.75;4.75;;;;;;;27.62;48.19;99929.48;1830245;78;22718;-82
2022/08/15 09:49:12;;;;;;;6.90;4.87;;;;;;;27.62;48.19;99928.08;1829450;77;21025;-82
2022/08/15 09:52:13;;;;;;;5.10;4.58;;;;;;;27.62;48.20;99930.88;1830325;77;21025;-82
2022/08/15 09:54:52;;;;;;;7.15;5.72;;;;;;;27.61;48.22;99927.27;1830779;78;20906;-82
2022/08/15 09:57:40;;;;;;;5.05;4.55;;;;;;;27.62;48.26;99926.09;1808625;78;21319;-82
2022/08/15 10:00:17;;;;;;;6.12;5.20;;;;;;;27.62;48.31;99921.91;1808134;78;21077;-82
2022/08/15 10:02:46;;;;;;;5.92;4.72;;;;;;;27.63;48.32;99918.48;1830603;77;21072;-82
2022/08/15 10:05:42;;;;;;;7.03;5.42;;;;;;;27.61;48.34;99925.08;1830904;78;21112;-82
2022/08/15 10:08:12;;;;;;;7.12;5.30;;;;;;;27.62;48.41;99926.69;1789319;77;21013;-82
2022/08/15 10:10:52;;;;;;;6.03;5.12;;;;;;;27.61;48.38;99921.69;1808150;78;21033;-82
2022/08/15 10:13:39;;;;;;;5.90;5.30;;;;;;;27.61;48.40;99927.27;1830674;77;21464;-82
2022/08/15 10:16:28;;;;;;;5.78;4.72;;;;;;;27.62;48.40;99930.28;1814504;77;21060;-82
2022/08/15 10:19:00;;;;;;;6.12;5.53;;;;;;;27.61;48.40;99927.27;1830469;77;21012;-82
2022/08/15 10:21:36;;;;;;;6.97;5.62;;;;;;;27.62;48.38;99924.70;1831000;78;21080;-82
2022/08/15 10:24:08;;;;;;;5.70;4.78;;;;;;;27.62;48.39;99919.70;1830398;77;21056;-82
2022/08/15 10:26:37;;;;;;;6.17;5.20;;;;;;;27.61;48.39;99920.29;1830664;77;21554;-82
2022/08/15 10:29:19;;;;;;;5.47;4.87;;;;;;;27.63;48.41;99917.89;1830829;78;20985;-82
2022/08/15 10:31:53;;;;;;;5.70;4.75;;;;;;;27.63;48.45;99921.28;1808835;78;21084;-82
2022/08/15 10:34:38;;;;;;;7.08;5.55;;;;;;;27.63;48.45;99912.90;1830760;77;21452;-82
2022/08/15 10:37:25;;;;;;;5.55;4.83;;;;;;;27.63;48.46;99911.50;1830729;78;21005;-82
2022/08/15 10:40:20;;;;;;;6.10;5.50;;;;;;;27.64;48.45;99908.92;1830736;78;21126;-82
2022/08/15 10:43:11;;;;;;;5.72;4.87;;;;;;;27.64;48.46;99900.53;1830128;77;21045;-82
2022/08/15 10:45:48;;;;;;;6.15;4.58;;;;;;;27.63;48.44;99903.92;1830882;78;21501;-82
2022/08/15 10:48:42;;;;;;;5.30;4.80;;;;;;;27.64;48.39;99903.33;1830515;77;21052;-82
2022/08/15 10:51:23;;;;;;;5.83;4.97;;;;;;;27.63;48.41;99900.33;1816469;77;21086;-82
2022/08/15 10:54:13;;;;;;;5.97;4.95;;;;;;;27.63;48.39;99907.31;1797878;79;21196;-82
2022/08/15 10:56:41;;;;;;;5.45;4.95;;;;;;;27.62;48.39;99899.55;1780086;78;21507;-82
2022/08/15 10:59:13;;;;;;;6.37;5.42;;;;;;;27.63;48.41;99894.73;1797883;78;20995;-82
2022/08/15 11:01:40;;;;;;;6.12;4.92;;;;;;;27.63;48.45;99889.14;1797653;78;21054;-82
2022/08/15 11:04:10;;;;;;;5.97;5.37;;;;;;;27.62;48.47;99884.77;1797829;78;20935;-82
2022/08/15 11:06:48;;;;;;;7.42;5.67;;;;;;;27.63;48.50;99876.57;1797854;79;21527;-82
2022/08/15 11:09:18;;;;;;;5.78;4.92;;;;;;;27.63;48.50;99884.95;1797957;78;21054;-82
2022/08/15 11:11:56;;;;;;;6.03;5.40;;;;;;;27.64;48.53;99879.58;1797699;79;20999;-82
2022/08/15 11:14:27;;;;;;;7.58;5.45;;;;;;;27.64;48.51;99888.77;1798077;78;21019;-82
2022/08/15 11:16:54;;;;;;;6.03;5.17;;;;;;;27.64;48.53;99878.19;1797770;79;20979;-82
2022/08/15 11:19:33;;;;;;;5.87;5.20;;;;;;;27.63;48.53;99878.77;1798050;78;21049;-82
2022/08/15 11:22:03;;;;;;;6.37;5.30;;;;;;;27.65;48.53;99878.39;1797876;79;21426;-82
2022/08/15 11:24:33;;;;;;;;;;;;;;;27.64;48.53;99873.98;1800645;78;21015;-82
2022/08/15 11:27:19;;;;;;;5.80;4.92;;;;;;;27.64;48.54;99873.98;1813108;78;20429;-82
2022/08/15 11:29:46;;;;;;;6.08;5.25;;;;;;;27.63;48.52;99865.39;1828130;77;21006;-82
2022/08/15 11:32:31;;;;;;;5.72;5.10;;;;;;;27.64;48.51;99868.41;1830854;77;21635;-82
2022/08/15 11:35:09;;;;;;;5.33;4.83;;;;;;;27.64;48.49;99867.00;1830424;78;20966;-82
2022/08/15 11:37:41;;;;;;;6.92;5.60;;;;;;;27.63;48.50;99851.42;1825429;78;21025;-82
2022/08/15 11:40:32;;;;;;;5.28;4.78;;;;;;;27.63;48.50;99859.22;1830359;78;21025;-82
2022/08/15 11:43:00;;;;;;;5.25;4.58;;;;;;;27.64;48.51;99853.03;1830334;77;21006;-82
2022/08/15 11:45:36;;;;;;;6.10;5.33;;;;;;;27.63;48.51;99843.84;1830424;77;22005;-82
2022/08/15 11:48:05;;;;;;;6.92;4.80;;;;;;;27.63;48.53;99845.23;1830821;77;21040;-82
2022/08/15 11:50:40;;;;;;;5.85;5.22;;;;;;;27.63;48.53;99840.24;1781749;78;21021;-82
2022/08/15 11:53:13;;;;;;;5.47;4.67;;;;;;;27.63;48.52;99842.45;1830771;77;21514;-82
2022/08/15 11:55:43;;;;;;;5.00;4.47;;;;;;;27.63;48.52;99840.24;1830431;78;21492;-82
2022/08/15 11:58:19;;;;;;;5.70;5.10;;;;;;;27.64;48.54;99843.25;1830885;78;21896;-82
2022/08/15 12:00:52;;;;;;;5.35;4.85;;;;;;;27.64;48.52;99836.27;1830562;77;21503;-83
2022/08/15 12:03:36;;;;;;;5.25;4.75;;;;;;;27.65;48.52;99836.48;1830833;78;21029;-82
2022/08/15 12:06:20;;;;;;;5.78;5.15;;;;;;;27.64;48.50;99835.67;1830609;78;21536;-82
2022/08/15 12:08:47;;;;;;;6.20;4.47;;;;;;;27.64;48.49;99829.28;1830937;78;21528;-82
2022/08/15 12:11:21;;;;;;;5.95;5.33;;;;;;;27.64;48.46;99824.50;1830494;77;21140;-82
2022/08/15 12:13:59;;;;;;;5.80;5.20;;;;;;;27.64;48.47;99819.50;1830692;77;20949;-82
2022/08/15 12:16:31;;;;;;;6.05;4.90;;;;;;;27.64;48.47;99817.52;1830462;78;21084;-82